Time;durP1;ratioP1;P1;durP2;ratioP2;P2;SDS_P1;SDS_P2;PMS_P1;PMS_P2;Temp;Humidity;BMP_temperature;BMP_pressure;BME280_temperature;BME280_humidity;BME280_pressure;Samples;Min_cycle;Max_cycle;Signal;HPM_P1;HPM_P2
2020/12/12 00:00:31;;;;;;;0.20;0.20;;;20.30;41.50;;;;;;5053629;28;20021;-74
2020/12/12 00:02:57;;;;;;;2.47;1.10;;;20.30;41.60;;;;;;5072893;28;20077;-73
2020/12/12 00:05:22;;;;;;;0.20;0.20;;;20.30;41.60;;;;;;5053424;28;20036;-73
2020/12/12 00:07:48;;;;;;;1.70;1.30;;;20.30;41.60;;;;;;5056441;28;20108;-73
2020/12/12 00:10:14;;;;;;;0.38;0.30;;;20.30;41.60;;;;;;5045940;28;20491;-73
2020/12/12 00:12:39;;;;;;;0.95;0.90;;;20.30;41.60;;;;;;5073788;28;20433;-73
2020/12/12 00:15:05;;;;;;;1.08;1.08;;;20.30;41.70;;;;;;5064860;28;20024;-73
2020/12/12 00:17:30;;;;;;;2.15;0.93;;;20.30;41.60;;;;;;5071388;28;20119;-72
2020/12/12 00:20:12;;;;;;;1.00;1.00;;;20.20;41.50;;;;;;5073704;28;20037;-73
2020/12/12 00:22:37;;;;;;;1.20;0.77;;;20.30;41.60;;;;;;5040858;28;20044;-72
2020/12/12 00:25:04;;;;;;;1.25;1.13;;;20.30;41.60;;;;;;5073439;28;20503;-73
2020/12/12 00:27:29;;;;;;;6.57;1.30;;;20.30;41.60;;;;;;5053284;28;20028;-74
2020/12/12 00:29:55;;;;;;;2.42;1.30;;;20.30;41.60;;;;;;5051786;28;20109;-73
2020/12/12 00:32:20;;;;;;;2.58;1.15;;;20.30;41.60;;;;;;5052229;28;20555;-73
2020/12/12 00:34:46;;;;;;;2.78;1.10;;;20.30;41.60;;;;;;5056927;28;20033;-73
2020/12/12 00:37:12;;;;;;;2.30;1.20;;;20.30;41.60;;;;;;5062852;28;20024;-73
2020/12/12 00:39:37;;;;;;;1.58;1.13;;;20.30;41.60;;;;;;5060547;28;20029;-73
2020/12/12 00:42:09;;;;;;;2.50;1.13;;;20.30;41.60;;;;;;5063717;28;20656;-73
2020/12/12 00:44:34;;;;;;;1.98;1.30;;;20.30;41.60;;;;;;5076834;28;20024;-74
2020/12/12 00:47:03;;;;;;;1.73;1.33;;;20.20;41.60;;;;;;5060302;28;21145;-73
2020/12/12 00:49:29;;;;;;;2.72;1.60;;;20.30;41.60;;;;;;5079682;28;20616;-73
2020/12/12 00:51:58;;;;;;;1.35;1.20;;;20.30;41.70;;;;;;5076606;28;20028;-73
2020/12/12 00:54:25;;;;;;;0.55;0.55;;;20.30;41.70;;;;;;5060570;28;20024;-73
2020/12/12 00:56:50;;;;;;;3.05;1.77;;;20.20;41.70;;;;;;5057421;28;20045;-74
2020/12/12 00:59:18;;;;;;;2.10;1.45;;;20.30;41.80;;;;;;5061117;28;20024;-73
2020/12/12 01:01:45;;;;;;;4.30;1.90;;;20.20;41.70;;;;;;5062687;28;20116;-72
2020/12/12 01:04:11;;;;;;;3.83;1.95;;;20.30;41.80;;;;;;5062686;28;20031;-72
2020/12/12 01:06:36;;;;;;;2.75;1.40;;;20.20;41.80;;;;;;5077055;28;20031;-72
2020/12/12 01:09:02;;;;;;;2.92;1.38;;;20.20;41.80;;;;;;5079063;28;20065;-74
2020/12/12 01:11:27;;;;;;;4.22;1.73;;;20.20;41.80;;;;;;5058558;28;20165;-74
2020/12/12 01:14:06;;;;;;;2.33;1.73;;;20.20;42.50;;;;;;5069820;28;20483;-73
2020/12/12 01:16:32;;;;;;;2.40;1.63;;;20.20;41.90;;;;;;5039875;28;20045;-73
2020/12/12 01:18:58;;;;;;;2.92;1.70;;;20.20;41.90;;;;;;5031107;28;20107;-74
2020/12/12 01:21:25;;;;;;;2.63;1.55;;;20.20;42.00;;;;;;5074118;28;20051;-74
2020/12/12 01:23:53;;;;;;;3.55;1.50;;;20.20;42.60;;;;;;5044109;28;20798;-75
2020/12/12 01:26:22;;;;;;;2.75;1.92;;;20.20;42.00;;;;;;5045156;28;20044;-74
2020/12/12 01:28:48;;;;;;;3.10;1.80;;;20.20;42.00;;;;;;5056750;28;20016;-74
2020/12/12 01:31:14;;;;;;;2.60;1.75;;;20.20;42.00;;;;;;5021596;28;20514;-74
2020/12/12 01:33:40;;;;;;;2.33;1.67;;;20.20;42.00;;;;;;5053466;28;20032;-74
2020/12/12 01:36:08;;;;;;;3.08;1.85;;;20.20;42.10;;;;;;5042109;28;20453;-74
2020/12/12 01:38:34;;;;;;;5.82;1.67;;;20.20;42.10;;;;;;5077237;28;20540;-74
2020/12/12 01:41:00;;;;;;;2.58;1.70;;;20.20;42.10;;;;;;5058708;28;20108;-74
2020/12/12 01:43:25;;;;;;;3.85;2.30;;;20.10;42.10;;;;;;5049477;28;20036;-73
2020/12/12 01:45:51;;;;;;;4.75;2.10;;;20.10;42.10;;;;;;5073257;28;20048;-74
2020/12/12 01:48:17;;;;;;;6.20;2.50;;;20.10;42.10;;;;;;5065044;28;20496;-74
2020/12/12 01:50:42;;;;;;;3.75;2.28;;;20.10;42.20;;;;;;5054810;28;20041;-74
2020/12/12 01:53:08;;;;;;;4.50;2.63;;;20.10;42.20;;;;;;5062240;28;20025;-75
2020/12/12 01:55:34;;;;;;;5.30;1.83;;;20.10;42.20;;;;;;5073706;28;20025;-75
2020/12/12 01:58:00;;;;;;;4.47;2.78;;;20.10;42.20;;;;;;5057603;28;20524;-75
2020/12/12 02:00:25;;;;;;;3.58;2.33;;;20.10;42.20;;;;;;5073296;28;20039;-76
2020/12/12 02:02:53;;;;;;;5.53;1.88;;;20.10;42.20;;;;;;5095064;28;20030;-76
2020/12/12 02:08:24;;;;;;;9.77;3.08;;;20.10;42.20;;;;;;4972733;28;22213;-73
2020/12/12 02:10:49;;;;;;;10.30;3.58;;;20.10;42.30;;;;;;4996347;28;20109;-74
2020/12/12 02:13:16;;;;;;;7.10;3.13;;;20.10;42.30;;;;;;4977813;28;20730;-73
2020/12/12 02:15:42;;;;;;;7.82;3.25;;;20.10;42.30;;;;;;4968854;28;20038;-73
2020/12/12 02:18:18;;;;;;;12.80;3.00;;;20.10;42.20;;;;;;4995954;28;20030;-73
2020/12/12 02:20:54;;;;;;;12.85;3.30;;;20.10;42.30;;;;;;4994495;28;20025;-73
2020/12/12 02:23:19;;;;;;;8.60;3.65;;;20.10;42.20;;;;;;4966193;28;20177;-73
2020/12/12 02:25:45;;;;;;;6.63;3.15;;;20.10;42.20;;;;;;4978791;28;20528;-74
2020/12/12 02:28:12;;;;;;;7.60;3.60;;;20.10;42.30;;;;;;4975254;28;20034;-74
2020/12/12 02:30:38;;;;;;;9.30;4.00;;;20.10;42.30;;;;;;4991949;28;20418;-74
2020/12/12 02:33:03;;;;;;;10.07;4.40;;;20.10;42.30;;;;;;4978933;28;20030;-74
2020/12/12 02:35:29;;;;;;;9.82;4.28;;;20.10;42.30;;;;;;4977652;28;20042;-74
2020/12/12 02:37:54;;;;;;;11.50;4.28;;;20.10;42.30;;;;;;4982397;28;20034;-74
2020/12/12 02:40:20;;;;;;;11.05;3.92;;;20.10;42.30;;;;;;4989056;28;20049;-74
2020/12/12 02:42:45;;;;;;;15.05;4.18;;;20.10;42.30;;;;;;4975945;28;20615;-74
2020/12/12 02:45:11;;;;;;;9.75;4.10;;;20.10;42.40;;;;;;5048079;28;20045;-74
2020/12/12 02:47:37;;;;;;;13.75;4.43;;;20.10;42.40;;;;;;5073792;28;20031;-74
2020/12/12 02:50:10;;;;;;;8.88;3.45;;;20.10;42.40;;;;;;5075006;28;20035;-74
2020/12/12 02:53:01;;;;;;;10.70;4.38;;;20.10;42.40;;;;;;5041157;28;20024;-73
2020/12/12 02:55:26;;;;;;;6.05;3.25;;;20.00;42.40;;;;;;5058435;28;20047;-73
2020/12/12 02:57:52;;;;;;;10.27;4.22;;;20.00;42.40;;;;;;5063725;28;20025;-73
2020/12/12 03:00:19;;;;;;;11.95;4.40;;;20.00;42.50;;;;;;5048891;28;20032;-73
2020/12/12 03:02:45;;;;;;;11.43;4.25;;;20.00;42.60;;;;;;5036719;28;20037;-73
2020/12/12 03:05:11;;;;;;;16.05;5.63;;;20.00;42.50;;;;;;5064252;28;20029;-73
2020/12/12 03:07:37;;;;;;;12.95;4.95;;;20.00;42.60;;;;;;5067043;28;20036;-73
2020/12/12 03:10:06;;;;;;;13.60;4.88;;;20.00;42.60;;;;;;5033445;28;20105;-75
2020/12/12 03:12:36;;;;;;;12.98;5.22;;;20.00;42.60;;;;;;5064929;28;20021;-74
2020/12/12 03:15:02;;;;;;;12.98;5.28;;;20.00;42.60;;;;;;5038720;28;20037;-73
2020/12/12 03:17:28;;;;;;;10.07;4.80;;;20.00;42.60;;;;;;5053682;28;20096;-73
2020/12/12 03:20:06;;;;;;;12.45;4.82;;;20.00;42.60;;;;;;5077402;28;20111;-73
2020/12/12 03:22:32;;;;;;;18.27;4.90;;;20.00;42.70;;;;;;5054081;28;20087;-73
2020/12/12 03:24:58;;;;;;;12.95;5.28;;;20.00;42.70;;;;;;5031652;28;20048;-73
2020/12/12 03:27:24;;;;;;;14.80;5.35;;;20.00;42.70;;;;;;5054773;28;20446;-73
2020/12/12 03:29:49;;;;;;;16.48;5.57;;;20.00;42.70;;;;;;5054590;28;20033;-73
2020/12/12 03:32:15;;;;;;;12.85;4.80;;;20.00;42.70;;;;;;5032619;28;20061;-73
2020/12/12 03:34:44;;;;;;;16.23;5.28;;;20.00;42.70;;;;;;5055014;28;20033;-73
2020/12/12 03:37:10;;;;;;;12.57;5.55;;;20.00;42.80;;;;;;5019706;28;20025;-73
2020/12/12 03:39:35;;;;;;;14.68;5.47;;;20.00;42.80;;;;;;5033846;28;20052;-73
2020/12/12 03:42:01;;;;;;;20.33;6.50;;;20.00;42.80;;;;;;5035717;28;20033;-75
2020/12/12 03:44:26;;;;;;;13.07;5.65;;;19.90;42.70;;;;;;5054009;28;20040;-74
2020/12/12 03:46:52;;;;;;;21.00;5.97;;;20.00;42.80;;;;;;5056483;28;20029;-74
2020/12/12 03:49:18;;;;;;;10.90;4.95;;;19.90;42.70;;;;;;5018665;28;20036;-74
2020/12/12 03:51:52;;;;;;;14.00;5.32;;;20.00;42.80;;;;;;5052444;28;20483;-74
2020/12/12 03:54:18;;;;;;;19.75;6.30;;;20.00;42.80;;;;;;5020057;28;20045;-73
2020/12/12 03:56:43;;;;;;;12.02;5.45;;;20.00;42.80;;;;;;5030218;28;20082;-74
2020/12/12 03:59:09;;;;;;;16.38;6.07;;;20.00;42.80;;;;;;5033550;28;20032;-74
2020/12/12 04:01:53;;;;;;;22.35;6.60;;;20.00;42.70;;;;;;5047774;28;20032;-74
2020/12/12 04:04:18;;;;;;;16.83;5.95;;;20.00;42.70;;;;;;5030888;28;20057;-74
2020/12/12 04:06:56;;;;;;;15.57;6.00;;;20.00;42.70;;;;;;5058839;28;20484;-74
2020/12/12 04:09:21;;;;;;;14.13;5.75;;;20.00;42.80;;;;;;5021191;28;20063;-74
2020/12/12 04:11:47;;;;;;;13.18;5.57;;;20.00;42.80;;;;;;5034305;28;20033;-76
2020/12/12 04:14:13;;;;;;;16.05;5.65;;;20.00;42.80;;;;;;5049894;28;20025;-75
2020/12/12 04:16:38;;;;;;;18.05;6.25;;;20.00;42.80;;;;;;5037386;28;20472;-75
2020/12/12 04:19:07;;;;;;;15.00;5.63;;;20.00;42.80;;;;;;5049255;28;20466;-74
2020/12/12 04:21:32;;;;;;;16.73;5.95;;;20.00;42.90;;;;;;5050891;28;20032;-73
2020/12/12 04:23:58;;;;;;;14.32;5.38;;;20.00;42.90;;;;;;5015948;28;20570;-73
2020/12/12 04:26:24;;;;;;;18.15;6.72;;;20.00;42.90;;;;;;5032098;28;20458;-74
2020/12/12 04:28:50;;;;;;;18.88;6.43;;;19.90;42.90;;;;;;5048782;28;20032;-73
2020/12/12 04:31:15;;;;;;;16.23;5.97;;;20.00;42.90;;;;;;5052981;28;20013;-74
2020/12/12 04:33:41;;;;;;;19.02;6.07;;;19.90;42.90;;;;;;5026052;28;20040;-74
2020/12/12 04:36:06;;;;;;;20.83;6.43;;;19.90;43.00;;;;;;5048734;28;20037;-73
2020/12/12 04:38:35;;;;;;;14.98;6.18;;;20.00;42.90;;;;;;5045012;28;20489;-74
2020/12/12 04:41:01;;;;;;;21.60;6.63;;;19.90;42.90;;;;;;5048227;28;20021;-73
2020/12/12 04:43:26;;;;;;;17.30;5.93;;;19.90;42.90;;;;;;5032640;28;20029;-73
2020/12/12 04:45:52;;;;;;;20.85;6.00;;;19.90;43.00;;;;;;5034519;28;20452;-74
2020/12/12 04:48:18;;;;;;;15.77;5.28;;;19.90;43.00;;;;;;5017790;28;20040;-74
2020/12/12 04:50:44;;;;;;;18.27;5.95;;;19.90;43.00;;;;;;5044959;28;20025;-75
2020/12/12 04:53:14;;;;;;;18.60;5.80;;;19.90;43.00;;;;;;5035791;28;20036;-75
2020/12/12 04:55:50;;;;;;;16.95;6.13;;;19.90;43.10;;;;;;5029305;28;20029;-75
2020/12/12 04:58:17;;;;;;;20.35;5.82;;;19.90;43.10;;;;;;5011977;28;20037;-75
2020/12/12 05:00:51;;;;;;;15.13;5.38;;;19.90;43.10;;;;;;5012749;28;20032;-73
2020/12/12 05:03:17;;;;;;;1.38;0.77;;;19.90;43.10;;;;;;5046127;28;20448;-74
2020/12/12 05:05:43;;;;;;;2.10;0.82;;;19.90;43.10;;;;;;5030534;28;20043;-73
2020/12/12 05:08:09;;;;;;;1.00;0.52;;;19.90;43.10;;;;;;5000586;28;20038;-73
2020/12/12 05:10:56;;;;;;;2.60;0.75;;;19.90;43.20;;;;;;5049808;28;20017;-73
2020/12/12 05:13:25;;;;;;;1.55;0.90;;;19.90;43.20;;;;;;5046690;28;20037;-73
2020/12/12 05:15:52;;;;;;;1.27;0.68;;;19.90;43.30;;;;;;5015738;28;20021;-72
2020/12/12 05:18:18;;;;;;;1.42;0.65;;;19.90;43.40;;;;;;5034891;28;20020;-73
2020/12/12 05:20:44;;;;;;;1.48;0.73;;;19.90;43.40;;;;;;5035328;28;20542;-73
2020/12/12 05:23:19;;;;;;;2.25;1.15;;;19.80;43.40;;;;;;5056422;28;20534;-73
2020/12/12 05:25:46;;;;;;;1.13;1.00;;;19.90;43.40;;;;;;5052670;28;20047;-73
2020/12/12 05:28:13;;;;;;;1.67;0.80;;;19.80;43.40;;;;;;5053630;28;20037;-74
2020/12/12 05:30:40;;;;;;;2.30;1.00;;;19.90;43.50;;;;;;5020566;28;20033;-73
2020/12/12 05:33:06;;;;;;;1.60;0.82;;;19.80;43.40;;;;;;5035471;28;20025;-73
2020/12/12 05:35:32;;;;;;;2.13;0.80;;;19.90;43.50;;;;;;5015681;28;20036;-73
2020/12/12 05:37:59;;;;;;;3.45;0.80;;;19.90;43.50;;;;;;5038326;28;20028;-72
2020/12/12 05:40:24;;;;;;;0.60;0.60;;;19.90;43.50;;;;;;5037560;28;20036;-73
2020/12/12 05:42:50;;;;;;;3.78;0.90;;;19.90;43.50;;;;;;5055515;28;20420;-72
2020/12/12 05:45:16;;;;;;;0.85;0.73;;;19.90;43.50;;;;;;5035552;28;20028;-73
2020/12/12 05:48:25;;;;;;;2.28;0.68;;;19.90;43.50;;;;;;5018838;28;20033;-73
2020/12/12 05:54:12;;;;;;;1.08;0.90;;;19.90;43.60;;;;;;5051039;28;20514;-72
2020/12/12 05:56:38;;;;;;;1.67;0.80;;;19.90;43.60;;;;;;5053433;28;20029;-74
2020/12/12 05:59:03;;;;;;;2.03;1.10;;;19.90;43.60;;;;;;5023021;28;20119;-73
2020/12/12 06:01:30;;;;;;;1.67;1.00;;;19.90;43.70;;;;;;5055384;28;20029;-74
2020/12/12 06:04:02;;;;;;;5.60;1.05;;;19.80;43.70;;;;;;5033532;28;20048;-74
2020/12/12 06:06:28;;;;;;;0.50;0.50;;;19.80;43.70;;;;;;5053870;28;20013;-75
2020/12/12 06:09:07;;;;;;;1.27;0.95;;;19.80;43.70;;;;;;5018084;28;20040;-74
2020/12/12 06:11:33;;;;;;;3.83;0.98;;;19.90;43.80;;;;;;5019834;28;20020;-73
2020/12/12 06:14:03;;;;;;;1.27;0.80;;;19.80;43.70;;;;;;5051382;28;20028;-73
2020/12/12 06:16:32;;;;;;;1.90;1.15;;;19.80;43.80;;;;;;5012775;28;20044;-72
2020/12/12 06:19:09;;;;;;;1.48;0.93;;;19.80;43.90;;;;;;5021861;28;20063;-72
2020/12/12 06:21:41;;;;;;;4.93;0.85;;;19.80;43.90;;;;;;5019824;28;20033;-72
2020/12/12 06:24:09;;;;;;;3.78;0.70;;;19.80;43.90;;;;;;5013915;28;20029;-73
2020/12/12 06:27:07;;;;;;;2.67;0.88;;;19.80;43.90;;;;;;5022249;28;20542;-72
2020/12/12 06:29:41;;;;;;;4.22;0.82;;;19.80;43.90;;;;;;4970200;28;20039;-73
2020/12/12 06:32:17;;;;;;;2.28;1.38;;;19.80;43.90;;;;;;4949589;28;20027;-73
2020/12/12 06:34:42;;;;;;;2.88;0.90;;;19.80;44.00;;;;;;4975521;28;20077;-73
2020/12/12 06:37:37;;;;;;;1.77;0.82;;;19.80;44.00;;;;;;4971709;28;20597;-73
2020/12/12 06:40:10;;;;;;;1.42;0.77;;;19.80;44.10;;;;;;4956840;28;20077;-73
2020/12/12 06:42:42;;;;;;;2.38;0.95;;;19.90;44.10;;;;;;4949023;28;20050;-73
2020/12/12 06:45:16;;;;;;;1.20;0.57;;;19.90;44.00;;;;;;4947089;28;20509;-73
2020/12/12 06:47:47;;;;;;;2.05;0.88;;;20.00;44.00;;;;;;4974765;28;20058;-73
2020/12/12 06:50:17;;;;;;;1.42;0.70;;;20.00;43.90;;;;;;4967158;28;20046;-73
2020/12/12 06:52:43;;;;;;;2.45;1.00;;;20.10;43.90;;;;;;4967000;28;20506;-73
2020/12/12 06:55:12;;;;;;;4.53;1.27;;;20.10;43.70;;;;;;4949801;28;20029;-73
2020/12/12 06:57:40;;;;;;;2.83;1.00;;;20.10;43.60;;;;;;4949182;28;20030;-73
2020/12/12 07:00:07;;;;;;;1.55;0.85;;;20.20;43.60;;;;;;4955716;28;20070;-74
2020/12/12 07:02:33;;;;;;;1.33;0.93;;;20.20;43.60;;;;;;4954217;28;20023;-73
2020/12/12 07:05:17;;;;;;;1.80;0.70;;;20.30;43.40;;;;;;5007813;28;20056;-74
2020/12/12 07:07:43;;;;;;;1.05;0.50;;;20.30;43.30;;;;;;5052826;28;20024;-73
2020/12/12 07:10:10;;;;;;;6.60;0.80;;;20.40;43.40;;;;;;5019539;28;20037;-74
2020/12/12 07:12:36;;;;;;;0.68;0.50;;;20.40;43.20;;;;;;5035013;28;20122;-73
2020/12/12 07:15:02;;;;;;;2.45;0.77;;;20.50;43.10;;;;;;5030019;28;20128;-73
2020/12/12 07:17:27;;;;;;;2.58;1.20;;;20.50;43.00;;;;;;4997984;28;20176;-74
2020/12/12 07:19:53;;;;;;;2.75;0.98;;;20.50;43.70;;;;;;5026352;28;20098;-74
2020/12/12 07:22:18;;;;;;;3.08;1.02;;;20.50;43.70;;;;;;5054659;28;20025;-74
2020/12/12 07:24:44;;;;;;;2.90;0.65;;;20.60;43.00;;;;;;5033473;28;20049;-74
2020/12/12 07:27:09;;;;;;;1.60;0.73;;;20.60;43.00;;;;;;5055619;28;20029;-74
2020/12/12 07:29:35;;;;;;;2.10;0.90;;;20.60;42.90;;;;;;5024299;28;20037;-74
2020/12/12 07:32:00;;;;;;;5.25;1.15;;;20.60;43.00;;;;;;5038338;28;20520;-74
2020/12/12 07:34:27;;;;;;;1.48;0.88;;;20.70;43.00;;;;;;5059877;28;20119;-73
2020/12/12 07:37:02;;;;;;;2.67;0.88;;;20.70;43.00;;;;;;5045738;28;20032;-75
2020/12/12 07:39:32;;;;;;;2.83;1.10;;;20.70;42.90;;;;;;5052394;28;20033;-75
2020/12/12 07:41:59;;;;;;;2.30;0.65;;;20.70;43.00;;;;;;5032598;28;20043;-76
2020/12/12 07:44:25;;;;;;;3.95;0.47;;;20.70;43.00;;;;;;5029511;28;20041;-76
2020/12/12 07:46:55;;;;;;;1.17;0.70;;;20.70;42.90;;;;;;5035717;28;20568;-73
2020/12/12 07:49:21;;;;;;;1.15;0.73;;;20.70;42.90;;;;;;5020865;28;20020;-75
2020/12/12 07:51:47;;;;;;;4.32;0.98;;;20.70;43.00;;;;;;5017285;28;20528;-75
2020/12/12 07:54:16;;;;;;;1.67;0.80;;;20.70;43.00;;;;;;5007458;28;20078;-73
2020/12/12 07:56:51;;;;;;;5.63;1.00;;;20.80;43.10;;;;;;5033410;28;20037;-76
2020/12/12 07:59:19;;;;;;;3.90;0.60;;;20.80;43.00;;;;;;5032906;28;20504;-76
2020/12/12 08:01:46;;;;;;;1.30;0.80;;;20.80;43.00;;;;;;5033157;28;20108;-76
2020/12/12 08:04:22;;;;;;;3.45;1.35;;;20.80;43.00;;;;;;5046509;28;20108;-74
2020/12/12 08:06:48;;;;;;;3.30;1.08;;;20.90;43.00;;;;;;5018667;28;20505;-73
2020/12/12 08:09:17;;;;;;;1.67;1.15;;;20.90;42.90;;;;;;5006406;28;20033;-74
2020/12/12 08:11:43;;;;;;;2.13;1.23;;;20.90;42.80;;;;;;5019689;28;20022;-74
2020/12/12 08:14:08;;;;;;;3.72;1.27;;;20.90;42.90;;;;;;5023339;28;20502;-73
2020/12/12 08:16:44;;;;;;;5.22;1.35;;;20.90;43.00;;;;;;5027015;28;20531;-73
2020/12/12 08:19:44;;;;;;;2.75;1.30;;;20.90;43.00;;;;;;5034099;28;20044;-73
2020/12/12 08:22:17;;;;;;;3.28;1.30;;;20.90;43.00;;;;;;5066051;28;20025;-77
2020/12/12 08:24:44;;;;;;;3.60;1.20;;;20.90;43.00;;;;;;4993623;28;20129;-76
2020/12/12 08:27:21;;;;;;;3.83;1.27;;;20.90;43.00;;;;;;4996438;28;20509;-76
2020/12/12 08:29:52;;;;;;;3.05;1.00;;;20.80;43.00;;;;;;4991234;28;20049;-75
2020/12/12 08:32:36;;;;;;;2.40;1.20;;;20.80;43.10;;;;;;4990355;28;20034;-75
2020/12/12 08:35:21;;;;;;;6.82;1.40;;;20.80;43.10;;;;;;4992284;28;20408;-75
2020/12/12 08:37:57;;;;;;;3.58;1.50;;;20.80;43.10;;;;;;5012372;28;20034;-76
2020/12/12 08:40:30;;;;;;;3.03;1.65;;;20.80;43.10;;;;;;4996315;28;20057;-75
2020/12/12 08:43:07;;;;;;;3.13;1.35;;;20.80;43.30;;;;;;5013966;28;20474;-75
2020/12/12 08:45:43;;;;;;;4.03;1.45;;;20.80;43.30;;;;;;4991181;28;20029;-75
2020/12/12 08:48:12;;;;;;;2.15;1.15;;;20.80;43.30;;;;;;5008988;28;20049;-75
2020/12/12 08:50:57;;;;;;;3.08;1.70;;;20.80;43.40;;;;;;5014122;28;20080;-75
2020/12/12 08:53:23;;;;;;;2.33;1.70;;;20.80;43.40;;;;;;4998072;28;20022;-75
2020/12/12 08:56:08;;;;;;;2.42;1.38;;;20.80;43.40;;;;;;5006019;28;20056;-78
2020/12/12 08:58:35;;;;;;;1.83;1.17;;;20.80;43.40;;;;;;5004051;28;20030;-72
2020/12/12 09:01:25;;;;;;;3.28;1.58;;;20.90;43.40;;;;;;5002392;28;20432;-73
2020/12/12 09:03:59;;;;;;;3.58;1.42;;;20.90;43.30;;;;;;5006896;28;20064;-71
2020/12/12 09:06:30;;;;;;;2.42;0.85;;;21.00;43.20;;;;;;5031857;28;20025;-71
2020/12/12 09:09:08;;;;;;;6.45;1.88;;;21.00;43.20;;;;;;5034060;28;21586;-72
2020/12/12 09:11:34;;;;;;;4.90;1.60;;;21.00;43.00;;;;;;5033620;28;20033;-71
2020/12/12 09:14:00;;;;;;;2.08;1.42;;;21.00;43.00;;;;;;5016046;28;20034;-71
2020/12/12 09:16:25;;;;;;;2.53;0.90;;;21.00;43.10;;;;;;4997276;28;20033;-72
2020/12/12 09:18:51;;;;;;;5.18;1.85;;;21.00;43.10;;;;;;5016630;28;20082;-72
2020/12/12 09:21:17;;;;;;;1.65;1.17;;;21.00;43.10;;;;;;4999715;28;20052;-71
2020/12/12 09:23:43;;;;;;;4.60;1.67;;;21.00;43.10;;;;;;5028184;28;20564;-72
2020/12/12 09:26:08;;;;;;;2.38;1.50;;;21.00;43.20;;;;;;5033314;28;20053;-71
2020/12/12 09:28:34;;;;;;;2.15;1.38;;;21.00;43.30;;;;;;5017466;28;20036;-71
2020/12/12 09:31:00;;;;;;;5.93;1.55;;;21.00;43.30;;;;;;4997735;28;20029;-71
2020/12/12 09:33:25;;;;;;;3.75;1.55;;;21.00;43.30;;;;;;5029471;28;20022;-72
2020/12/12 09:35:51;;;;;;;4.55;1.48;;;21.00;43.30;;;;;;5028581;28;20619;-70
2020/12/12 09:38:18;;;;;;;3.17;1.45;;;21.00;43.40;;;;;;5019068;28;20575;-72
2020/12/12 09:40:46;;;;;;;4.80;2.03;;;21.00;44.00;;;;;;5016744;28;20030;-72
2020/12/12 09:43:14;;;;;;;4.70;1.50;;;21.00;43.40;;;;;;5009491;28;20026;-72
2020/12/12 09:45:40;;;;;;;8.27;2.10;;;21.00;43.50;;;;;;5023313;28;20121;-72
2020/12/12 09:48:06;;;;;;;5.32;1.70;;;21.00;43.50;;;;;;5019536;28;20117;-72
2020/12/12 09:50:35;;;;;;;3.88;2.00;;;21.00;44.00;;;;;;5019921;28;20507;-73
2020/12/12 09:53:01;;;;;;;2.65;1.52;;;21.10;43.50;;;;;;5034079;28;20394;-72
2020/12/12 09:55:27;;;;;;;5.72;1.67;;;21.10;43.50;;;;;;5013181;28;20080;-72
2020/12/12 09:57:52;;;;;;;2.58;1.02;;;21.10;43.50;;;;;;5024064;28;20054;-73
2020/12/12 10:00:18;;;;;;;5.45;2.28;;;21.10;43.40;;;;;;5004137;28;20030;-72
2020/12/12 10:02:44;;;;;;;5.25;1.65;;;21.00;43.50;;;;;;5010609;28;20518;-72
2020/12/12 10:05:09;;;;;;;2.08;1.48;;;21.00;43.40;;;;;;5003064;28;20034;-72
2020/12/12 10:07:35;;;;;;;1.33;1.23;;;21.10;43.40;;;;;;5005243;28;20097;-71
2020/12/12 10:10:00;;;;;;;4.90;1.77;;;21.10;43.40;;;;;;4996951;28;20517;-72
2020/12/12 10:12:26;;;;;;;2.78;1.05;;;21.10;43.40;;;;;;5007528;28;20477;-72
2020/12/12 10:14:51;;;;;;;3.65;1.20;;;21.10;43.40;;;;;;4997671;28;20053;-72
2020/12/12 10:17:17;;;;;;;2.03;1.48;;;21.10;43.30;;;;;;5023850;28;20022;-71
2020/12/12 10:19:42;;;;;;;7.70;2.53;;;21.10;43.30;;;;;;4999965;28;20052;-71
2020/12/12 10:22:08;;;;;;;3.58;1.85;;;21.10;43.20;;;;;;5000258;28;20084;-72
2020/12/12 10:24:34;;;;;;;4.82;1.08;;;21.10;43.30;;;;;;5015374;28;20044;-72
2020/12/12 10:26:59;;;;;;;2.75;1.15;;;21.20;43.30;;;;;;5069415;28;20396;-72
2020/12/12 10:29:25;;;;;;;3.90;1.70;;;21.20;43.30;;;;;;5046799;28;20372;-72
2020/12/12 10:32:09;;;;;;;3.95;1.58;;;21.20;43.20;;;;;;5059833;28;20052;-72
2020/12/12 10:34:34;;;;;;;2.25;1.05;;;21.10;43.20;;;;;;5058883;28;20555;-72
2020/12/12 10:37:00;;;;;;;1.13;0.75;;;21.10;43.30;;;;;;5064296;28;20119;-72
2020/12/12 10:39:29;;;;;;;3.05;1.55;;;21.10;43.20;;;;;;5055549;28;20063;-72
2020/12/12 10:42:07;;;;;;;3.42;0.95;;;21.20;43.20;;;;;;5047376;28;20028;-72
2020/12/12 10:44:32;;;;;;;3.45;1.52;;;21.10;43.10;;;;;;5037483;28;20051;-72
2020/12/12 10:46:58;;;;;;;1.95;0.88;;;21.20;43.20;;;;;;5047807;28;20421;-72
2020/12/12 10:49:24;;;;;;;2.25;1.13;;;21.10;43.10;;;;;;5046619;28;20364;-72
2020/12/12 10:51:53;;;;;;;2.33;1.45;;;21.10;43.10;;;;;;5043211;28;20032;-71
2020/12/12 10:54:19;;;;;;;2.22;1.48;;;21.20;43.20;;;;;;5039498;28;20037;-72
2020/12/12 10:56:45;;;;;;;7.25;1.38;;;21.10;43.10;;;;;;5053930;28;20033;-72
2020/12/12 10:59:11;;;;;;;1.95;0.93;;;21.20;43.20;;;;;;5067709;28;20028;-72
2020/12/12 11:01:36;;;;;;;3.40;0.88;;;21.20;43.20;;;;;;5068297;28;20056;-72
2020/12/12 11:04:02;;;;;;;2.42;1.70;;;21.20;43.10;;;;;;5035851;28;20509;-72
2020/12/12 11:06:53;;;;;;;4.97;1.25;;;21.30;43.10;;;;;;5041889;28;20105;-72
2020/12/12 11:09:18;;;;;;;2.90;1.52;;;21.20;43.10;;;;;;5059498;28;20412;-71
2020/12/12 11:11:44;;;;;;;2.75;1.85;;;21.20;43.10;;;;;;5064522;28;20111;-72
2020/12/12 11:14:10;;;;;;;3.28;1.65;;;21.20;43.20;;;;;;5041414;28;20043;-72
2020/12/12 11:16:35;;;;;;;8.15;2.10;;;21.20;43.20;;;;;;5043638;28;20033;-72
2020/12/12 11:19:04;;;;;;;5.55;2.63;;;21.20;43.10;;;;;;5061845;28;20084;-71
2020/12/12 11:21:30;;;;;;;4.45;2.03;;;21.20;43.20;;;;;;5045277;28;20057;-72
2020/12/12 11:23:55;;;;;;;5.82;1.90;;;21.20;43.30;;;;;;5036454;28;20075;-77
2020/12/12 11:26:21;;;;;;;2.05;1.48;;;21.20;43.30;;;;;;5048462;28;20150;-76
2020/12/12 11:28:47;;;;;;;3.63;1.98;;;21.20;43.30;;;;;;5051520;28;20024;-77
2020/12/12 11:31:17;;;;;;;3.67;1.80;;;21.10;43.30;;;;;;5052855;28;20044;-77
2020/12/12 11:33:44;;;;;;;1.98;1.17;;;21.20;43.30;;;;;;5048569;28;20365;-76
2020/12/12 11:46:38;;;;;;;3.70;1.58;;;21.10;43.50;;;;;;4994028;28;20490;-77
2020/12/12 11:49:09;;;;;;;6.15;2.08;;;21.10;43.50;;;;;;4979383;28;20038;-78
2020/12/12 11:51:36;;;;;;;1.95;1.42;;;21.10;43.50;;;;;;5016752;28;20692;-77
2020/12/12 11:54:01;;;;;;;3.67;1.92;;;21.10;43.50;;;;;;4996811;28;20044;-77
2020/12/12 11:56:27;;;;;;;3.97;1.75;;;21.00;43.50;;;;;;5005899;28;20132;-77
2020/12/12 11:58:52;;;;;;;2.60;1.95;;;21.10;43.50;;;;;;5000528;28;20021;-78
2020/12/12 12:01:25;;;;;;;3.22;1.92;;;21.10;43.40;;;;;;4994741;28;20030;-77
2020/12/12 12:03:51;;;;;;;6.60;1.08;;;21.10;43.40;;;;;;4976842;28;20052;-77
2020/12/12 12:06:17;;;;;;;5.32;1.40;;;21.10;43.50;;;;;;5006315;28;20424;-77
2020/12/12 12:11:32;;;;;;;4.45;1.05;;;21.10;43.40;;;;;;5019598;28;20057;-76
2020/12/12 12:13:58;;;;;;;5.90;1.17;;;21.20;43.30;;;;;;4994885;28;20026;-78
2020/12/12 12:16:24;;;;;;;2.90;1.10;;;21.10;43.30;;;;;;5035668;28;20396;-78
2020/12/12 12:18:50;;;;;;;3.38;1.10;;;21.10;43.30;;;;;;5047693;28;20101;-77
2020/12/12 12:21:15;;;;;;;5.25;1.30;;;21.20;43.30;;;;;;5049157;28;20020;-78
2020/12/12 12:23:41;;;;;;;1.77;1.00;;;21.10;43.30;;;;;;5052294;28;20082;-78
2020/12/12 12:26:07;;;;;;;3.17;1.42;;;21.10;43.30;;;;;;5041793;28;20106;-77
2020/12/12 12:28:32;;;;;;;3.47;1.33;;;21.20;43.20;;;;;;5073449;28;20579;-77
2020/12/12 12:30:58;;;;;;;4.47;2.08;;;21.20;43.30;;;;;;5045653;28;20021;-77
2020/12/12 12:33:23;;;;;;;8.65;1.50;;;21.20;43.90;;;;;;5067685;28;20028;-77
2020/12/12 12:35:49;;;;;;;3.25;1.63;;;21.20;43.30;;;;;;5058280;28;20041;-77
2020/12/12 12:38:15;;;;;;;2.55;1.00;;;21.20;43.30;;;;;;5025249;28;20063;-77
2020/12/12 12:40:53;;;;;;;4.72;1.50;;;21.20;43.30;;;;;;5059374;28;20157;-77
2020/12/12 12:43:18;;;;;;;4.63;1.90;;;21.20;44.00;;;;;;5047075;28;20507;-78
2020/12/12 12:45:44;;;;;;;2.45;1.17;;;21.20;43.30;;;;;;5048865;28;20091;-77
2020/12/12 12:48:09;;;;;;;2.15;1.40;;;21.20;43.20;;;;;;5073014;28;20044;-77
2020/12/12 12:50:37;;;;;;;2.55;1.40;;;21.30;43.20;;;;;;5047912;28;20036;-77
2020/12/12 12:53:09;;;;;;;1.25;0.98;;;21.30;43.20;;;;;;5067337;28;20025;-78
2020/12/12 12:55:35;;;;;;;1.48;0.82;;;21.40;43.10;;;;;;5051978;28;20446;-77
2020/12/12 12:58:01;;;;;;;2.60;0.80;;;21.50;42.90;;;;;;5060399;28;20044;-72
2020/12/12 13:00:27;;;;;;;1.02;1.02;;;21.60;42.70;;;;;;5073183;28;20047;-72
2020/12/12 13:03:39;;;;;;;2.00;0.88;;;21.60;42.60;;;;;;5050050;28;20041;-71
2020/12/12 13:06:21;;;;;;;3.05;1.40;;;21.60;42.60;;;;;;5075388;28;20028;-71
2020/12/12 13:08:59;;;;;;;2.33;1.15;;;21.70;42.60;;;;;;5057778;28;20498;-71
2020/12/12 13:11:49;;;;;;;1.48;1.02;;;21.70;42.50;;;;;;5027784;28;20044;-71